sensor_id;sensor_type;location;lat;lon;timestamp;P1;durP1;ratioP1;P2;durP2;ratioP2
36445;SDS011;22472;50.848;-1.216;2022-08-19T00:01:34;4.68;;;0.95;;
36445;SDS011;22472;50.848;-1.216;2022-08-19T00:04:04;6.75;;;1.30;;
36445;SDS011;22472;50.848;-1.216;2022-08-19T00:06:34;6.03;;;1.25;;
36445;SDS011;22472;50.848;-1.216;2022-08-19T00:09:02;7.35;;;1.30;;
36445;SDS011;22472;50.848;-1.216;2022-08-19T00:11:30;5.18;;;0.98;;
36445;SDS011;22472;50.848;-1.216;2022-08-19T00:13:57;7.80;;;1.20;;
36445;SDS011;22472;50.848;-1.216;2022-08-19T00:16:25;3.50;;;1.02;;
36445;SDS011;22472;50.848;-1.216;2022-08-19T00:18:52;3.72;;;0.77;;
36445;SDS011;22472;50.848;-1.216;2022-08-19T00:21:20;5.15;;;0.90;;
36445;SDS011;22472;50.848;-1.216;2022-08-19T00:23:47;3.42;;;0.82;;
36445;SDS011;22472;50.848;-1.216;2022-08-19T00:26:14;5.78;;;0.95;;
36445;SDS011;22472;50.848;-1.216;2022-08-19T00:28:41;4.32;;;1.00;;
36445;SDS011;22472;50.848;-1.216;2022-08-19T00:31:08;3.38;;;0.80;;
36445;SDS011;22472;50.848;-1.216;2022-08-19T00:33:37;3.47;;;0.80;;
36445;SDS011;22472;50.848;-1.216;2022-08-19T00:36:06;5.22;;;0.85;;
36445;SDS011;22472;50.848;-1.216;2022-08-19T00:38:34;3.38;;;0.85;;
36445;SDS011;22472;50.848;-1.216;2022-08-19T00:41:02;4.05;;;0.75;;
36445;SDS011;22472;50.848;-1.216;2022-08-19T00:43:30;4.10;;;0.80;;
36445;SDS011;22472;50.848;-1.216;2022-08-19T00:45:56;5.85;;;0.90;;
36445;SDS011;22472;50.848;-1.216;2022-08-19T00:48:26;3.87;;;0.50;;
36445;SDS011;22472;50.848;-1.216;2022-08-19T00:50:54;3.53;;;0.80;;
36445;SDS011;22472;50.848;-1.216;2022-08-19T00:53:22;4.47;;;1.00;;
36445;SDS011;22472;50.848;-1.216;2022-08-19T00:55:52;3.30;;;0.70;;
36445;SDS011;22472;50.848;-1.216;2022-08-19T00:58:23;3.42;;;0.90;;
36445;SDS011;22472;50.848;-1.216;2022-08-19T01:00:53;3.45;;;0.60;;
36445;SDS011;22472;50.848;-1.216;2022-08-19T01:03:21;3.05;;;0.70;;
36445;SDS011;22472;50.848;-1.216;2022-08-19T01:05:49;3.65;;;0.80;;
36445;SDS011;22472;50.848;-1.216;2022-08-19T01:08:18;4.25;;;0.88;;
36445;SDS011;22472;50.848;-1.216;2022-08-19T01:10:47;5.75;;;0.88;;
36445;SDS011;22472;50.848;-1.216;2022-08-19T01:13:15;3.92;;;1.00;;
36445;SDS011;22472;50.848;-1.216;2022-08-19T01:15:44;4.20;;;0.90;;
36445;SDS011;22472;50.848;-1.216;2022-08-19T01:18:15;5.38;;;0.98;;
36445;SDS011;22472;50.848;-1.216;2022-08-19T01:20:43;5.50;;;1.23;;
36445;SDS011;22472;50.848;-1.216;2022-08-19T01:23:12;6.00;;;1.08;;
36445;SDS011;22472;50.848;-1.216;2022-08-19T01:25:41;4.73;;;0.70;;
36445;SDS011;22472;50.848;-1.216;2022-08-19T01:28:14;5.60;;;1.08;;
36445;SDS011;22472;50.848;-1.216;2022-08-19T01:30:44;8.05;;;1.38;;
36445;SDS011;22472;50.848;-1.216;2022-08-19T01:33:11;7.10;;;1.15;;
36445;SDS011;22472;50.848;-1.216;2022-08-19T01:35:39;5.65;;;1.40;;
36445;SDS011;22472;50.848;-1.216;2022-08-19T01:38:08;6.35;;;1.20;;
36445;SDS011;22472;50.848;-1.216;2022-08-19T01:40:46;6.32;;;1.10;;
36445;SDS011;22472;50.848;-1.216;2022-08-19T01:43:13;7.70;;;1.70;;
36445;SDS011;22472;50.848;-1.216;2022-08-19T01:45:40;6.82;;;1.40;;
36445;SDS011;22472;50.848;-1.216;2022-08-19T01:48:08;8.23;;;1.25;;
36445;SDS011;22472;50.848;-1.216;2022-08-19T01:50:36;8.63;;;1.27;;
36445;SDS011;22472;50.848;-1.216;2022-08-19T01:53:04;5.50;;;1.20;;
36445;SDS011;22472;50.848;-1.216;2022-08-19T01:55:33;6.03;;;1.35;;
36445;SDS011;22472;50.848;-1.216;2022-08-19T01:58:03;7.53;;;1.35;;
36445;SDS011;22472;50.848;-1.216;2022-08-19T02:00:34;5.07;;;0.95;;
36445;SDS011;22472;50.848;-1.216;2022-08-19T02:03:01;4.60;;;0.95;;
36445;SDS011;22472;50.848;-1.216;2022-08-19T02:05:28;7.57;;;1.00;;
36445;SDS011;22472;50.848;-1.216;2022-08-19T02:08:13;6.00;;;1.10;;
36445;SDS011;22472;50.848;-1.216;2022-08-19T02:10:42;4.43;;;0.90;;
36445;SDS011;22472;50.848;-1.216;2022-08-19T02:13:11;6.88;;;1.00;;
36445;SDS011;22472;50.848;-1.216;2022-08-19T02:15:39;3.78;;;0.93;;
36445;SDS011;22472;50.848;-1.216;2022-08-19T02:18:07;6.68;;;0.93;;
36445;SDS011;22472;50.848;-1.216;2022-08-19T02:20:34;8.85;;;1.17;;
36445;SDS011;22472;50.848;-1.216;2022-08-19T02:23:01;6.35;;;1.00;;
36445;SDS011;22472;50.848;-1.216;2022-08-19T02:25:28;5.82;;;0.85;;
36445;SDS011;22472;50.848;-1.216;2022-08-19T02:27:55;8.98;;;1.17;;
36445;SDS011;22472;50.848;-1.216;2022-08-19T02:30:24;5.53;;;1.00;;
36445;SDS011;22472;50.848;-1.216;2022-08-19T02:32:51;6.50;;;1.10;;
36445;SDS011;22472;50.848;-1.216;2022-08-19T02:35:19;5.50;;;1.00;;
36445;SDS011;22472;50.848;-1.216;2022-08-19T02:37:46;7.35;;;1.20;;
36445;SDS011;22472;50.848;-1.216;2022-08-19T02:40:32;6.32;;;0.80;;
36445;SDS011;22472;50.848;-1.216;2022-08-19T02:43:00;4.25;;;0.80;;
36445;SDS011;22472;50.848;-1.216;2022-08-19T02:45:30;3.63;;;0.70;;
36445;SDS011;22472;50.848;-1.216;2022-08-19T02:47:58;3.90;;;0.70;;
36445;SDS011;22472;50.848;-1.216;2022-08-19T02:50:25;4.50;;;0.77;;
36445;SDS011;22472;50.848;-1.216;2022-08-19T02:52:52;2.97;;;0.60;;
36445;SDS011;22472;50.848;-1.216;2022-08-19T02:55:19;5.07;;;0.60;;
36445;SDS011;22472;50.848;-1.216;2022-08-19T02:57:46;4.38;;;0.75;;
36445;SDS011;22472;50.848;-1.216;2022-08-19T03:00:14;4.35;;;0.70;;
36445;SDS011;22472;50.848;-1.216;2022-08-19T03:02:43;3.92;;;0.70;;
36445;SDS011;22472;50.848;-1.216;2022-08-19T03:05:12;7.45;;;0.98;;
36445;SDS011;22472;50.848;-1.216;2022-08-19T03:07:39;3.00;;;0.80;;
36445;SDS011;22472;50.848;-1.216;2022-08-19T03:10:06;5.03;;;1.02;;
36445;SDS011;22472;50.848;-1.216;2022-08-19T03:12:35;5.30;;;0.90;;
36445;SDS011;22472;50.848;-1.216;2022-08-19T03:15:04;2.90;;;0.97;;
36445;SDS011;22472;50.848;-1.216;2022-08-19T03:17:32;6.43;;;1.35;;
36445;SDS011;22472;50.848;-1.216;2022-08-19T03:20:01;4.78;;;1.15;;
36445;SDS011;22472;50.848;-1.216;2022-08-19T03:22:29;3.90;;;1.48;;
36445;SDS011;22472;50.848;-1.216;2022-08-19T03:24:56;8.52;;;1.80;;
36445;SDS011;22472;50.848;-1.216;2022-08-19T03:27:24;8.43;;;1.63;;
36445;SDS011;22472;50.848;-1.216;2022-08-19T03:29:52;12.13;;;2.20;;
36445;SDS011;22472;50.848;-1.216;2022-08-19T03:32:19;11.48;;;2.40;;
36445;SDS011;22472;50.848;-1.216;2022-08-19T03:34:47;9.95;;;2.20;;
36445;SDS011;22472;50.848;-1.216;2022-08-19T03:37:15;9.05;;;2.30;;
36445;SDS011;22472;50.848;-1.216;2022-08-19T03:39:43;9.27;;;1.90;;
36445;SDS011;22472;50.848;-1.216;2022-08-19T03:42:10;10.15;;;2.15;;
36445;SDS011;22472;50.848;-1.216;2022-08-19T03:44:37;13.10;;;2.40;;
36445;SDS011;22472;50.848;-1.216;2022-08-19T03:47:05;10.90;;;2.08;;
36445;SDS011;22472;50.848;-1.216;2022-08-19T03:49:32;12.27;;;2.03;;
36445;SDS011;22472;50.848;-1.216;2022-08-19T03:52:00;10.05;;;1.95;;
36445;SDS011;22472;50.848;-1.216;2022-08-19T03:54:31;8.07;;;1.80;;
36445;SDS011;22472;50.848;-1.216;2022-08-19T03:57:00;10.57;;;2.05;;
36445;SDS011;22472;50.848;-1.216;2022-08-19T03:59:28;9.20;;;1.90;;
36445;SDS011;22472;50.848;-1.216;2022-08-19T04:01:58;8.95;;;2.10;;
36445;SDS011;22472;50.848;-1.216;2022-08-19T04:04:27;9.52;;;1.98;;
36445;SDS011;22472;50.848;-1.216;2022-08-19T04:06:55;6.65;;;1.42;;
36445;SDS011;22472;50.848;-1.216;2022-08-19T04:09:22;6.38;;;1.98;;
36445;SDS011;22472;50.848;-1.216;2022-08-19T04:11:54;9.23;;;1.80;;
36445;SDS011;22472;50.848;-1.216;2022-08-19T04:14:23;6.50;;;1.55;;
36445;SDS011;22472;50.848;-1.216;2022-08-19T04:16:53;6.32;;;1.67;;
36445;SDS011;22472;50.848;-1.216;2022-08-19T04:19:20;8.70;;;1.52;;
36445;SDS011;22472;50.848;-1.216;2022-08-19T04:21:49;7.95;;;1.70;;
36445;SDS011;22472;50.848;-1.216;2022-08-19T04:24:18;7.50;;;1.60;;
36445;SDS011;22472;50.848;-1.216;2022-08-19T04:26:46;9.25;;;1.70;;
36445;SDS011;22472;50.848;-1.216;2022-08-19T04:29:16;5.43;;;1.33;;
36445;SDS011;22472;50.848;-1.216;2022-08-19T04:31:47;7.03;;;1.65;;
36445;SDS011;22472;50.848;-1.216;2022-08-19T04:34:15;5.20;;;1.17;;
36445;SDS011;22472;50.848;-1.216;2022-08-19T04:36:44;7.40;;;1.43;;
36445;SDS011;22472;50.848;-1.216;2022-08-19T04:39:12;6.75;;;1.52;;
36445;SDS011;22472;50.848;-1.216;2022-08-19T04:41:40;8.02;;;1.67;;
36445;SDS011;22472;50.848;-1.216;2022-08-19T04:44:27;7.82;;;1.20;;
36445;SDS011;22472;50.848;-1.216;2022-08-19T04:46:55;5.40;;;1.13;;
36445;SDS011;22472;50.848;-1.216;2022-08-19T04:49:23;5.15;;;1.10;;
36445;SDS011;22472;50.848;-1.216;2022-08-19T04:51:51;5.70;;;1.20;;
36445;SDS011;22472;50.848;-1.216;2022-08-19T04:54:20;3.73;;;1.10;;
36445;SDS011;22472;50.848;-1.216;2022-08-19T04:56:50;4.38;;;1.00;;
36445;SDS011;22472;50.848;-1.216;2022-08-19T04:59:17;4.53;;;1.00;;
36445;SDS011;22472;50.848;-1.216;2022-08-19T05:01:47;5.63;;;0.98;;
36445;SDS011;22472;50.848;-1.216;2022-08-19T05:04:15;3.77;;;0.90;;
36445;SDS011;22472;50.848;-1.216;2022-08-19T05:06:44;4.18;;;0.90;;
36445;SDS011;22472;50.848;-1.216;2022-08-19T05:09:12;3.30;;;0.85;;
36445;SDS011;22472;50.848;-1.216;2022-08-19T05:11:40;4.35;;;0.80;;
36445;SDS011;22472;50.848;-1.216;2022-08-19T05:14:07;4.43;;;0.63;;
36445;SDS011;22472;50.848;-1.216;2022-08-19T05:16:36;2.63;;;0.75;;
36445;SDS011;22472;50.848;-1.216;2022-08-19T05:19:04;6.40;;;0.98;;
36445;SDS011;22472;50.848;-1.216;2022-08-19T05:21:49;4.88;;;0.80;;
36445;SDS011;22472;50.848;-1.216;2022-08-19T05:24:33;4.28;;;0.77;;
36445;SDS011;22472;50.848;-1.216;2022-08-19T05:27:01;5.28;;;0.88;;
36445;SDS011;22472;50.848;-1.216;2022-08-19T05:29:29;4.47;;;0.90;;
36445;SDS011;22472;50.848;-1.216;2022-08-19T05:31:57;4.72;;;0.80;;
36445;SDS011;22472;50.848;-1.216;2022-08-19T05:34:26;5.03;;;0.80;;
36445;SDS011;22472;50.848;-1.216;2022-08-19T05:36:54;5.85;;;0.85;;
36445;SDS011;22472;50.848;-1.216;2022-08-19T05:39:23;4.78;;;1.00;;
36445;SDS011;22472;50.848;-1.216;2022-08-19T05:41:53;5.35;;;0.90;;
36445;SDS011;22472;50.848;-1.216;2022-08-19T05:44:22;5.20;;;0.90;;
36445;SDS011;22472;50.848;-1.216;2022-08-19T05:46:51;3.95;;;0.90;;
36445;SDS011;22472;50.848;-1.216;2022-08-19T05:49:20;4.47;;;0.90;;
36445;SDS011;22472;50.848;-1.216;2022-08-19T05:51:49;3.97;;;0.80;;
36445;SDS011;22472;50.848;-1.216;2022-08-19T05:54:17;5.45;;;0.75;;
36445;SDS011;22472;50.848;-1.216;2022-08-19T05:56:44;3.60;;;0.60;;
36445;SDS011;22472;50.848;-1.216;2022-08-19T05:59:14;3.45;;;0.68;;
36445;SDS011;22472;50.848;-1.216;2022-08-19T06:01:42;4.10;;;0.75;;
36445;SDS011;22472;50.848;-1.216;2022-08-19T06:04:11;3.97;;;0.63;;
36445;SDS011;22472;50.848;-1.216;2022-08-19T06:06:39;6.03;;;0.80;;
36445;SDS011;22472;50.848;-1.216;2022-08-19T06:09:08;3.40;;;0.55;;
36445;SDS011;22472;50.848;-1.216;2022-08-19T06:11:36;5.13;;;0.60;;
36445;SDS011;22472;50.848;-1.216;2022-08-19T06:14:06;4.47;;;0.60;;
36445;SDS011;22472;50.848;-1.216;2022-08-19T06:16:36;3.42;;;0.50;;
36445;SDS011;22472;50.848;-1.216;2022-08-19T06:19:07;3.67;;;0.50;;
36445;SDS011;22472;50.848;-1.216;2022-08-19T06:21:36;3.75;;;0.47;;
36445;SDS011;22472;50.848;-1.216;2022-08-19T06:24:05;1.60;;;0.30;;
36445;SDS011;22472;50.848;-1.216;2022-08-19T06:26:37;3.00;;;0.30;;
36445;SDS011;22472;50.848;-1.216;2022-08-19T06:29:07;1.23;;;0.20;;
36445;SDS011;22472;50.848;-1.216;2022-08-19T06:31:35;1.60;;;0.30;;
36445;SDS011;22472;50.848;-1.216;2022-08-19T06:34:02;0.98;;;0.20;;
36445;SDS011;22472;50.848;-1.216;2022-08-19T06:36:31;2.78;;;0.20;;
36445;SDS011;22472;50.848;-1.216;2022-08-19T06:38:59;1.58;;;0.22;;
36445;SDS011;22472;50.848;-1.216;2022-08-19T06:41:29;2.08;;;0.22;;
36445;SDS011;22472;50.848;-1.216;2022-08-19T06:43:56;2.88;;;0.30;;
36445;SDS011;22472;50.848;-1.216;2022-08-19T06:46:24;1.10;;;0.20;;
36445;SDS011;22472;50.848;-1.216;2022-08-19T06:48:51;1.55;;;0.20;;
36445;SDS011;22472;50.848;-1.216;2022-08-19T06:51:19;2.22;;;0.35;;
36445;SDS011;22472;50.848;-1.216;2022-08-19T06:53:48;4.18;;;0.32;;
36445;SDS011;22472;50.848;-1.216;2022-08-19T06:56:16;3.67;;;0.50;;
36445;SDS011;22472;50.848;-1.216;2022-08-19T06:58:46;2.60;;;0.50;;
36445;SDS011;22472;50.848;-1.216;2022-08-19T07:01:16;2.67;;;0.35;;
36445;SDS011;22472;50.848;-1.216;2022-08-19T07:03:43;2.72;;;0.55;;
36445;SDS011;22472;50.848;-1.216;2022-08-19T07:06:12;2.17;;;0.60;;
36445;SDS011;22472;50.848;-1.216;2022-08-19T07:08:43;2.50;;;0.50;;
36445;SDS011;22472;50.848;-1.216;2022-08-19T07:11:12;2.28;;;0.50;;
36445;SDS011;22472;50.848;-1.216;2022-08-19T07:16:12;2.33;;;0.38;;
36445;SDS011;22472;50.848;-1.216;2022-08-19T07:18:41;2.20;;;0.35;;
36445;SDS011;22472;50.848;-1.216;2022-08-19T07:21:10;2.78;;;0.30;;
36445;SDS011;22472;50.848;-1.216;2022-08-19T07:23:40;2.38;;;0.40;;
36445;SDS011;22472;50.848;-1.216;2022-08-19T07:26:08;1.35;;;0.20;;
36445;SDS011;22472;50.848;-1.216;2022-08-19T07:28:36;2.20;;;0.30;;
36445;SDS011;22472;50.848;-1.216;2022-08-19T07:31:05;2.08;;;0.20;;
36445;SDS011;22472;50.848;-1.216;2022-08-19T07:33:34;1.02;;;0.20;;
36445;SDS011;22472;50.848;-1.216;2022-08-19T07:36:02;2.92;;;0.40;;
36445;SDS011;22472;50.848;-1.216;2022-08-19T07:38:31;4.80;;;0.60;;
36445;SDS011;22472;50.848;-1.216;2022-08-19T07:40:58;2.40;;;0.38;;
36445;SDS011;22472;50.848;-1.216;2022-08-19T07:43:25;3.50;;;0.35;;
36445;SDS011;22472;50.848;-1.216;2022-08-19T07:45:53;2.40;;;0.43;;
36445;SDS011;22472;50.848;-1.216;2022-08-19T07:48:22;3.55;;;0.43;;
36445;SDS011;22472;50.848;-1.216;2022-08-19T07:50:52;1.85;;;0.30;;
36445;SDS011;22472;50.848;-1.216;2022-08-19T07:53:19;6.63;;;0.80;;
36445;SDS011;22472;50.848;-1.216;2022-08-19T07:55:46;5.47;;;0.75;;
36445;SDS011;22472;50.848;-1.216;2022-08-19T07:58:15;5.20;;;0.50;;
36445;SDS011;22472;50.848;-1.216;2022-08-19T08:00:44;5.00;;;0.60;;
36445;SDS011;22472;50.848;-1.216;2022-08-19T08:03:13;4.80;;;0.73;;
36445;SDS011;22472;50.848;-1.216;2022-08-19T08:05:42;2.90;;;0.40;;
36445;SDS011;22472;50.848;-1.216;2022-08-19T08:08:28;6.18;;;0.73;;
36445;SDS011;22472;50.848;-1.216;2022-08-19T08:11:13;5.07;;;0.80;;
36445;SDS011;22472;50.848;-1.216;2022-08-19T08:13:41;5.70;;;0.98;;
36445;SDS011;22472;50.848;-1.216;2022-08-19T08:16:09;6.97;;;1.27;;
36445;SDS011;22472;50.848;-1.216;2022-08-19T08:18:36;6.68;;;1.13;;
36445;SDS011;22472;50.848;-1.216;2022-08-19T08:21:07;8.00;;;1.02;;
36445;SDS011;22472;50.848;-1.216;2022-08-19T08:23:36;9.55;;;1.27;;
36445;SDS011;22472;50.848;-1.216;2022-08-19T08:26:03;7.32;;;1.13;;
36445;SDS011;22472;50.848;-1.216;2022-08-19T08:28:30;9.20;;;1.27;;
36445;SDS011;22472;50.848;-1.216;2022-08-19T08:30:57;6.72;;;1.20;;
36445;SDS011;22472;50.848;-1.216;2022-08-19T08:33:25;9.27;;;1.15;;
36445;SDS011;22472;50.848;-1.216;2022-08-19T08:35:54;6.57;;;1.02;;
36445;SDS011;22472;50.848;-1.216;2022-08-19T08:38:20;8.48;;;1.40;;
36445;SDS011;22472;50.848;-1.216;2022-08-19T08:40:50;7.30;;;1.25;;
36445;SDS011;22472;50.848;-1.216;2022-08-19T08:43:23;6.63;;;1.00;;
36445;SDS011;22472;50.848;-1.216;2022-08-19T08:45:55;6.88;;;1.05;;
36445;SDS011;22472;50.848;-1.216;2022-08-19T08:48:30;6.90;;;1.25;;
36445;SDS011;22472;50.848;-1.216;2022-08-19T08:51:03;7.45;;;1.23;;
36445;SDS011;22472;50.848;-1.216;2022-08-19T08:53:35;8.43;;;1.20;;
36445;SDS011;22472;50.848;-1.216;2022-08-19T08:56:05;5.68;;;1.00;;
36445;SDS011;22472;50.848;-1.216;2022-08-19T08:58:40;9.02;;;1.10;;
36445;SDS011;22472;50.848;-1.216;2022-08-19T09:01:12;5.32;;;0.90;;
36445;SDS011;22472;50.848;-1.216;2022-08-19T09:03:40;7.22;;;1.20;;
36445;SDS011;22472;50.848;-1.216;2022-08-19T09:06:12;8.30;;;0.98;;
36445;SDS011;22472;50.848;-1.216;2022-08-19T09:08:45;6.85;;;1.10;;
36445;SDS011;22472;50.848;-1.216;2022-08-19T09:11:22;7.80;;;0.90;;
36445;SDS011;22472;50.848;-1.216;2022-08-19T09:14:02;7.72;;;1.08;;
36445;SDS011;22472;50.848;-1.216;2022-08-19T09:16:37;9.88;;;1.25;;
36445;SDS011;22472;50.848;-1.216;2022-08-19T09:19:06;9.90;;;1.30;;
36445;SDS011;22472;50.848;-1.216;2022-08-19T09:21:36;6.57;;;0.88;;
36445;SDS011;22472;50.848;-1.216;2022-08-19T09:24:04;8.10;;;1.20;;
36445;SDS011;22472;50.848;-1.216;2022-08-19T09:26:33;6.05;;;1.05;;
36445;SDS011;22472;50.848;-1.216;2022-08-19T09:29:00;11.30;;;1.10;;
36445;SDS011;22472;50.848;-1.216;2022-08-19T09:31:30;7.40;;;1.25;;
36445;SDS011;22472;50.848;-1.216;2022-08-19T09:33:57;6.20;;;1.30;;
36445;SDS011;22472;50.848;-1.216;2022-08-19T09:36:27;10.60;;;1.70;;
36445;SDS011;22472;50.848;-1.216;2022-08-19T09:38:57;6.85;;;1.38;;
36445;SDS011;22472;50.848;-1.216;2022-08-19T09:41:26;9.35;;;1.42;;
36445;SDS011;22472;50.848;-1.216;2022-08-19T09:43:56;7.35;;;1.40;;
36445;SDS011;22472;50.848;-1.216;2022-08-19T09:48:52;9.13;;;1.70;;
36445;SDS011;22472;50.848;-1.216;2022-08-19T09:51:23;9.25;;;1.98;;
36445;SDS011;22472;50.848;-1.216;2022-08-19T09:53:53;7.68;;;1.48;;
36445;SDS011;22472;50.848;-1.216;2022-08-19T09:56:24;8.82;;;1.27;;
36445;SDS011;22472;50.848;-1.216;2022-08-19T09:58:51;8.18;;;1.38;;
36445;SDS011;22472;50.848;-1.216;2022-08-19T10:01:21;8.45;;;1.20;;
36445;SDS011;22472;50.848;-1.216;2022-08-19T10:03:49;9.48;;;1.08;;
36445;SDS011;22472;50.848;-1.216;2022-08-19T10:06:19;9.90;;;1.40;;
36445;SDS011;22472;50.848;-1.216;2022-08-19T10:08:48;6.80;;;1.15;;
36445;SDS011;22472;50.848;-1.216;2022-08-19T10:11:16;5.22;;;1.13;;
36445;SDS011;22472;50.848;-1.216;2022-08-19T10:13:44;5.00;;;0.80;;
36445;SDS011;22472;50.848;-1.216;2022-08-19T10:16:11;8.00;;;1.10;;
36445;SDS011;22472;50.848;-1.216;2022-08-19T10:18:42;8.63;;;1.02;;
36445;SDS011;22472;50.848;-1.216;2022-08-19T10:21:10;4.50;;;0.80;;
36445;SDS011;22472;50.848;-1.216;2022-08-19T10:23:39;5.60;;;0.98;;
36445;SDS011;22472;50.848;-1.216;2022-08-19T10:26:11;6.20;;;0.80;;
36445;SDS011;22472;50.848;-1.216;2022-08-19T10:28:39;6.22;;;1.00;;
36445;SDS011;22472;50.848;-1.216;2022-08-19T10:31:07;4.25;;;0.63;;
36445;SDS011;22472;50.848;-1.216;2022-08-19T10:33:36;8.07;;;1.05;;
36445;SDS011;22472;50.848;-1.216;2022-08-19T10:36:06;4.20;;;0.75;;
36445;SDS011;22472;50.848;-1.216;2022-08-19T10:38:35;4.00;;;0.60;;
36445;SDS011;22472;50.848;-1.216;2022-08-19T10:41:06;5.80;;;0.70;;
36445;SDS011;22472;50.848;-1.216;2022-08-19T10:43:34;6.50;;;0.95;;
36445;SDS011;22472;50.848;-1.216;2022-08-19T10:46:03;9.32;;;1.73;;
36445;SDS011;22472;50.848;-1.216;2022-08-19T10:48:31;8.98;;;1.15;;
36445;SDS011;22472;50.848;-1.216;2022-08-19T10:50:59;5.32;;;0.90;;
36445;SDS011;22472;50.848;-1.216;2022-08-19T10:53:45;4.93;;;0.90;;
36445;SDS011;22472;50.848;-1.216;2022-08-19T10:56:12;7.13;;;1.40;;
36445;SDS011;22472;50.848;-1.216;2022-08-19T10:58:57;5.72;;;0.88;;
36445;SDS011;22472;50.848;-1.216;2022-08-19T11:01:24;7.57;;;0.90;;
36445;SDS011;22472;50.848;-1.216;2022-08-19T11:03:51;6.95;;;0.95;;
36445;SDS011;22472;50.848;-1.216;2022-08-19T11:06:18;7.20;;;1.08;;
36445;SDS011;22472;50.848;-1.216;2022-08-19T11:08:47;7.03;;;1.17;;
36445;SDS011;22472;50.848;-1.216;2022-08-19T11:11:14;6.32;;;0.95;;
36445;SDS011;22472;50.848;-1.216;2022-08-19T11:13:41;4.95;;;0.70;;
36445;SDS011;22472;50.848;-1.216;2022-08-19T11:16:11;9.02;;;1.13;;
36445;SDS011;22472;50.848;-1.216;2022-08-19T11:18:41;5.27;;;1.00;;
36445;SDS011;22472;50.848;-1.216;2022-08-19T11:21:10;7.27;;;1.33;;
36445;SDS011;22472;50.848;-1.216;2022-08-19T11:26:08;4.85;;;1.08;;
36445;SDS011;22472;50.848;-1.216;2022-08-19T11:28:35;6.03;;;1.17;;
36445;SDS011;22472;50.848;-1.216;2022-08-19T11:31:03;5.47;;;1.17;;
36445;SDS011;22472;50.848;-1.216;2022-08-19T11:33:35;6.25;;;1.30;;
36445;SDS011;22472;50.848;-1.216;2022-08-19T11:36:02;5.90;;;1.10;;
36445;SDS011;22472;50.848;-1.216;2022-08-19T11:38:29;7.53;;;1.20;;
36445;SDS011;22472;50.848;-1.216;2022-08-19T11:40:57;8.05;;;0.98;;
36445;SDS011;22472;50.848;-1.216;2022-08-19T11:43:26;7.57;;;1.15;;
36445;SDS011;22472;50.848;-1.216;2022-08-19T11:45:54;6.22;;;1.00;;
36445;SDS011;22472;50.848;-1.216;2022-08-19T11:48:21;6.80;;;0.75;;
36445;SDS011;22472;50.848;-1.216;2022-08-19T11:50:50;4.05;;;0.70;;
36445;SDS011;22472;50.848;-1.216;2022-08-19T11:53:18;3.83;;;0.90;;
36445;SDS011;22472;50.848;-1.216;2022-08-19T11:55:46;6.70;;;1.05;;
36445;SDS011;22472;50.848;-1.216;2022-08-19T11:58:14;6.38;;;0.85;;
36445;SDS011;22472;50.848;-1.216;2022-08-19T12:00:45;6.25;;;1.00;;
36445;SDS011;22472;50.848;-1.216;2022-08-19T12:03:12;7.15;;;1.17;;
36445;SDS011;22472;50.848;-1.216;2022-08-19T12:05:40;6.97;;;1.10;;
36445;SDS011;22472;50.848;-1.216;2022-08-19T12:08:08;7.60;;;0.80;;
36445;SDS011;22472;50.848;-1.216;2022-08-19T12:10:36;5.75;;;0.80;;
36445;SDS011;22472;50.848;-1.216;2022-08-19T12:13:04;5.72;;;1.15;;
36445;SDS011;22472;50.848;-1.216;2022-08-19T12:15:35;5.65;;;0.90;;
36445;SDS011;22472;50.848;-1.216;2022-08-19T12:18:04;5.35;;;0.93;;
36445;SDS011;22472;50.848;-1.216;2022-08-19T12:20:33;5.50;;;0.88;;
36445;SDS011;22472;50.848;-1.216;2022-08-19T12:25:27;5.90;;;1.20;;
36445;SDS011;22472;50.848;-1.216;2022-08-19T12:27:56;7.03;;;1.25;;
36445;SDS011;22472;50.848;-1.216;2022-08-19T12:30:26;6.50;;;1.10;;
36445;SDS011;22472;50.848;-1.216;2022-08-19T12:32:53;5.25;;;0.93;;
36445;SDS011;22472;50.848;-1.216;2022-08-19T12:35:21;5.70;;;0.80;;
36445;SDS011;22472;50.848;-1.216;2022-08-19T12:37:49;6.60;;;1.05;;
36445;SDS011;22472;50.848;-1.216;2022-08-19T12:40:16;5.45;;;0.82;;
36445;SDS011;22472;50.848;-1.216;2022-08-19T12:42:45;4.43;;;1.08;;
36445;SDS011;22472;50.848;-1.216;2022-08-19T12:45:12;5.13;;;0.77;;
36445;SDS011;22472;50.848;-1.216;2022-08-19T12:47:40;5.78;;;1.02;;
36445;SDS011;22472;50.848;-1.216;2022-08-19T12:50:07;5.75;;;0.82;;
36445;SDS011;22472;50.848;-1.216;2022-08-19T12:52:36;7.30;;;0.95;;
36445;SDS011;22472;50.848;-1.216;2022-08-19T12:55:03;5.05;;;0.70;;
36445;SDS011;22472;50.848;-1.216;2022-08-19T12:57:32;5.55;;;0.85;;
36445;SDS011;22472;50.848;-1.216;2022-08-19T13:00:03;5.28;;;0.90;;
36445;SDS011;22472;50.848;-1.216;2022-08-19T13:02:34;4.00;;;0.70;;
36445;SDS011;22472;50.848;-1.216;2022-08-19T13:05:02;4.35;;;0.85;;
36445;SDS011;22472;50.848;-1.216;2022-08-19T13:07:31;4.90;;;1.02;;
36445;SDS011;22472;50.848;-1.216;2022-08-19T13:09:59;5.47;;;0.77;;
36445;SDS011;22472;50.848;-1.216;2022-08-19T13:12:27;5.37;;;0.80;;
36445;SDS011;22472;50.848;-1.216;2022-08-19T13:14:55;4.15;;;0.82;;
36445;SDS011;22472;50.848;-1.216;2022-08-19T13:17:22;4.82;;;0.90;;
36445;SDS011;22472;50.848;-1.216;2022-08-19T13:19:49;4.80;;;0.70;;
36445;SDS011;22472;50.848;-1.216;2022-08-19T13:22:16;7.55;;;0.95;;
36445;SDS011;22472;50.848;-1.216;2022-08-19T13:24:43;6.13;;;0.85;;
36445;SDS011;22472;50.848;-1.216;2022-08-19T13:27:12;6.82;;;0.98;;
36445;SDS011;22472;50.848;-1.216;2022-08-19T13:29:39;4.40;;;0.88;;
36445;SDS011;22472;50.848;-1.216;2022-08-19T13:32:24;5.53;;;0.80;;
36445;SDS011;22472;50.848;-1.216;2022-08-19T13:35:09;6.15;;;0.60;;
36445;SDS011;22472;50.848;-1.216;2022-08-19T13:37:36;6.40;;;0.90;;
36445;SDS011;22472;50.848;-1.216;2022-08-19T13:40:09;5.97;;;1.05;;
36445;SDS011;22472;50.848;-1.216;2022-08-19T13:42:42;3.53;;;0.70;;
36445;SDS011;22472;50.848;-1.216;2022-08-19T13:45:11;5.22;;;0.80;;
36445;SDS011;22472;50.848;-1.216;2022-08-19T13:47:39;4.68;;;0.80;;
36445;SDS011;22472;50.848;-1.216;2022-08-19T13:50:08;5.47;;;0.77;;
36445;SDS011;22472;50.848;-1.216;2022-08-19T13:52:36;4.40;;;0.57;;
36445;SDS011;22472;50.848;-1.216;2022-08-19T13:55:04;6.32;;;1.00;;
36445;SDS011;22472;50.848;-1.216;2022-08-19T13:57:32;6.45;;;1.10;;
36445;SDS011;22472;50.848;-1.216;2022-08-19T14:00:01;4.47;;;0.75;;
36445;SDS011;22472;50.848;-1.216;2022-08-19T14:02:29;5.20;;;0.65;;
36445;SDS011;22472;50.848;-1.216;2022-08-19T14:04:56;7.00;;;0.60;;
36445;SDS011;22472;50.848;-1.216;2022-08-19T14:07:24;7.22;;;0.73;;
36445;SDS011;22472;50.848;-1.216;2022-08-19T14:09:51;4.47;;;0.80;;
36445;SDS011;22472;50.848;-1.216;2022-08-19T14:12:18;6.53;;;1.00;;
36445;SDS011;22472;50.848;-1.216;2022-08-19T14:14:46;4.63;;;0.95;;
36445;SDS011;22472;50.848;-1.216;2022-08-19T14:17:15;5.05;;;0.73;;
36445;SDS011;22472;50.848;-1.216;2022-08-19T14:19:42;6.07;;;0.90;;
36445;SDS011;22472;50.848;-1.216;2022-08-19T14:22:10;4.60;;;0.50;;
36445;SDS011;22472;50.848;-1.216;2022-08-19T14:24:37;4.63;;;1.00;;
36445;SDS011;22472;50.848;-1.216;2022-08-19T14:27:05;5.57;;;0.65;;
36445;SDS011;22472;50.848;-1.216;2022-08-19T14:29:33;3.78;;;0.57;;
36445;SDS011;22472;50.848;-1.216;2022-08-19T14:32:00;3.30;;;0.40;;
36445;SDS011;22472;50.848;-1.216;2022-08-19T14:34:28;7.47;;;0.70;;
36445;SDS011;22472;50.848;-1.216;2022-08-19T14:36:57;3.70;;;0.60;;
36445;SDS011;22472;50.848;-1.216;2022-08-19T14:39:24;6.85;;;1.02;;
36445;SDS011;22472;50.848;-1.216;2022-08-19T14:41:51;3.35;;;0.50;;
36445;SDS011;22472;50.848;-1.216;2022-08-19T14:44:18;4.53;;;0.68;;
36445;SDS011;22472;50.848;-1.216;2022-08-19T14:46:45;3.90;;;0.65;;
36445;SDS011;22472;50.848;-1.216;2022-08-19T14:49:12;5.13;;;0.80;;
36445;SDS011;22472;50.848;-1.216;2022-08-19T14:51:41;5.78;;;0.82;;
36445;SDS011;22472;50.848;-1.216;2022-08-19T14:54:08;6.05;;;0.85;;